sensor_id;sensor_type;location;lat;lon;timestamp;temperature;humidity
70269;DHT22;58514;48.398;-4.274;2022-11-15T00:00:03;13.00;99.90
70269;DHT22;58514;48.398;-4.274;2022-11-15T00:02:29;13.00;99.90
70269;DHT22;58514;48.398;-4.274;2022-11-15T00:04:54;13.00;99.90
70269;DHT22;58514;48.398;-4.274;2022-11-15T00:07:20;13.00;99.90
70269;DHT22;58514;48.398;-4.274;2022-11-15T00:09:45;13.00;99.90
70269;DHT22;58514;48.398;-4.274;2022-11-15T00:12:11;13.00;99.90
70269;DHT22;58514;48.398;-4.274;2022-11-15T00:14:36;13.00;99.90
70269;DHT22;58514;48.398;-4.274;2022-11-15T00:17:02;13.00;99.90
70269;DHT22;58514;48.398;-4.274;2022-11-15T00:19:28;13.00;99.90
70269;DHT22;58514;48.398;-4.274;2022-11-15T00:21:53;13.00;99.90
70269;DHT22;58514;48.398;-4.274;2022-11-15T00:24:19;13.00;99.90
70269;DHT22;58514;48.398;-4.274;2022-11-15T00:26:44;13.10;99.90
70269;DHT22;58514;48.398;-4.274;2022-11-15T00:29:10;13.10;99.90
70269;DHT22;58514;48.398;-4.274;2022-11-15T00:31:35;13.10;99.90
70269;DHT22;58514;48.398;-4.274;2022-11-15T00:34:01;13.10;99.90
70269;DHT22;58514;48.398;-4.274;2022-11-15T00:36:26;13.10;99.90
70269;DHT22;58514;48.398;-4.274;2022-11-15T00:38:52;13.10;99.90
70269;DHT22;58514;48.398;-4.274;2022-11-15T00:41:18;13.10;99.90
70269;DHT22;58514;48.398;-4.274;2022-11-15T00:43:43;13.10;99.90
70269;DHT22;58514;48.398;-4.274;2022-11-15T00:46:09;13.10;99.90
70269;DHT22;58514;48.398;-4.274;2022-11-15T00:48:35;13.10;99.90
70269;DHT22;58514;48.398;-4.274;2022-11-15T00:51:01;13.20;99.90
70269;DHT22;58514;48.398;-4.274;2022-11-15T00:53:27;13.20;99.90
70269;DHT22;58514;48.398;-4.274;2022-11-15T00:55:52;13.20;99.90
70269;DHT22;58514;48.398;-4.274;2022-11-15T00:58:18;13.20;99.90
70269;DHT22;58514;48.398;-4.274;2022-11-15T01:00:44;13.20;99.90
70269;DHT22;58514;48.398;-4.274;2022-11-15T01:03:09;13.20;99.90
70269;DHT22;58514;48.398;-4.274;2022-11-15T01:05:36;13.20;99.90
70269;DHT22;58514;48.398;-4.274;2022-11-15T01:08:02;13.20;99.90
70269;DHT22;58514;48.398;-4.274;2022-11-15T01:10:28;13.20;99.90
70269;DHT22;58514;48.398;-4.274;2022-11-15T01:12:54;13.20;99.90
70269;DHT22;58514;48.398;-4.274;2022-11-15T01:15:19;13.20;99.90
70269;DHT22;58514;48.398;-4.274;2022-11-15T01:17:45;13.20;99.90
70269;DHT22;58514;48.398;-4.274;2022-11-15T01:20:10;13.20;99.90
70269;DHT22;58514;48.398;-4.274;2022-11-15T01:22:36;13.20;99.90
70269;DHT22;58514;48.398;-4.274;2022-11-15T01:25:02;13.20;99.90
70269;DHT22;58514;48.398;-4.274;2022-11-15T01:27:28;13.20;99.90
70269;DHT22;58514;48.398;-4.274;2022-11-15T01:29:53;13.30;99.90
70269;DHT22;58514;48.398;-4.274;2022-11-15T01:32:19;13.20;99.90
70269;DHT22;58514;48.398;-4.274;2022-11-15T01:34:44;13.20;99.90
70269;DHT22;58514;48.398;-4.274;2022-11-15T01:37:10;13.20;99.90
70269;DHT22;58514;48.398;-4.274;2022-11-15T01:39:35;13.20;99.90
70269;DHT22;58514;48.398;-4.274;2022-11-15T01:42:01;13.20;99.90
70269;DHT22;58514;48.398;-4.274;2022-11-15T01:46:55;13.20;99.90
70269;DHT22;58514;48.398;-4.274;2022-11-15T01:49:21;13.20;99.90
70269;DHT22;58514;48.398;-4.274;2022-11-15T01:51:48;13.20;99.90
70269;DHT22;58514;48.398;-4.274;2022-11-15T01:54:15;13.20;99.90
70269;DHT22;58514;48.398;-4.274;2022-11-15T01:56:55;13.20;99.90
70269;DHT22;58514;48.398;-4.274;2022-11-15T01:59:21;13.20;99.90
70269;DHT22;58514;48.398;-4.274;2022-11-15T02:01:47;13.20;99.90
70269;DHT22;58514;48.398;-4.274;2022-11-15T02:04:13;13.20;99.90
70269;DHT22;58514;48.398;-4.274;2022-11-15T02:06:41;13.20;99.90
70269;DHT22;58514;48.398;-4.274;2022-11-15T02:09:08;13.20;99.90
70269;DHT22;58514;48.398;-4.274;2022-11-15T02:11:34;13.20;99.90
70269;DHT22;58514;48.398;-4.274;2022-11-15T02:13:59;13.20;99.90
70269;DHT22;58514;48.398;-4.274;2022-11-15T02:21:44;13.20;99.90
70269;DHT22;58514;48.398;-4.274;2022-11-15T02:37:19;13.20;99.90
70269;DHT22;58514;48.398;-4.274;2022-11-15T02:39:47;13.20;99.90
70269;DHT22;58514;48.398;-4.274;2022-11-15T02:42:19;13.20;99.90
70269;DHT22;58514;48.398;-4.274;2022-11-15T02:45:05;13.20;99.90
70269;DHT22;58514;48.398;-4.274;2022-11-15T02:47:34;13.30;99.90
70269;DHT22;58514;48.398;-4.274;2022-11-15T02:50:12;13.20;99.90
70269;DHT22;58514;48.398;-4.274;2022-11-15T02:52:38;13.30;99.90
70269;DHT22;58514;48.398;-4.274;2022-11-15T02:55:04;13.30;99.90
70269;DHT22;58514;48.398;-4.274;2022-11-15T03:00:11;13.30;99.90
70269;DHT22;58514;48.398;-4.274;2022-11-15T03:05:17;13.30;99.90
70269;DHT22;58514;48.398;-4.274;2022-11-15T03:10:24;13.30;99.90
70269;DHT22;58514;48.398;-4.274;2022-11-15T03:12:55;13.30;99.90
70269;DHT22;58514;48.398;-4.274;2022-11-15T03:15:24;13.40;99.90
70269;DHT22;58514;48.398;-4.274;2022-11-15T03:17:55;13.40;99.90
70269;DHT22;58514;48.398;-4.274;2022-11-15T03:20:23;13.40;99.90
70269;DHT22;58514;48.398;-4.274;2022-11-15T03:22:49;13.40;99.90
70269;DHT22;58514;48.398;-4.274;2022-11-15T03:25:20;13.50;99.90
70269;DHT22;58514;48.398;-4.274;2022-11-15T03:27:49;13.50;99.90
70269;DHT22;58514;48.398;-4.274;2022-11-15T03:30:16;13.50;99.90
70269;DHT22;58514;48.398;-4.274;2022-11-15T03:32:46;13.50;99.90
70269;DHT22;58514;48.398;-4.274;2022-11-15T03:35:14;13.60;99.90
70269;DHT22;58514;48.398;-4.274;2022-11-15T03:40:11;13.60;99.90
70269;DHT22;58514;48.398;-4.274;2022-11-15T03:46:07;13.60;99.90
70269;DHT22;58514;48.398;-4.274;2022-11-15T03:48:12;13.60;99.90
70269;DHT22;58514;48.398;-4.274;2022-11-15T03:50:38;13.60;99.90
70269;DHT22;58514;48.398;-4.274;2022-11-15T03:53:04;13.70;99.90
70269;DHT22;58514;48.398;-4.274;2022-11-15T03:55:31;13.60;99.90
70269;DHT22;58514;48.398;-4.274;2022-11-15T03:57:57;13.70;99.90
70269;DHT22;58514;48.398;-4.274;2022-11-15T04:00:23;13.70;99.90
70269;DHT22;58514;48.398;-4.274;2022-11-15T04:02:49;13.70;99.90
70269;DHT22;58514;48.398;-4.274;2022-11-15T04:05:15;13.70;99.90
70269;DHT22;58514;48.398;-4.274;2022-11-15T04:07:40;13.70;99.90
70269;DHT22;58514;48.398;-4.274;2022-11-15T04:10:06;13.60;99.90
70269;DHT22;58514;48.398;-4.274;2022-11-15T04:12:32;13.70;99.90
70269;DHT22;58514;48.398;-4.274;2022-11-15T04:17:37;13.60;99.90
70269;DHT22;58514;48.398;-4.274;2022-11-15T04:20:04;13.60;99.90
70269;DHT22;58514;48.398;-4.274;2022-11-15T04:22:48;13.60;99.90
70269;DHT22;58514;48.398;-4.274;2022-11-15T04:25:35;13.60;99.90
70269;DHT22;58514;48.398;-4.274;2022-11-15T04:28:01;13.60;99.90
70269;DHT22;58514;48.398;-4.274;2022-11-15T04:30:26;13.60;99.90
70269;DHT22;58514;48.398;-4.274;2022-11-15T04:32:52;13.60;99.90
70269;DHT22;58514;48.398;-4.274;2022-11-15T04:35:18;13.60;99.90
70269;DHT22;58514;48.398;-4.274;2022-11-15T04:37:43;13.60;99.90
70269;DHT22;58514;48.398;-4.274;2022-11-15T04:40:09;13.60;99.90
70269;DHT22;58514;48.398;-4.274;2022-11-15T04:42:34;13.70;99.90
70269;DHT22;58514;48.398;-4.274;2022-11-15T04:45:00;13.60;99.90
70269;DHT22;58514;48.398;-4.274;2022-11-15T04:47:25;13.70;99.90
70269;DHT22;58514;48.398;-4.274;2022-11-15T04:49:52;13.60;99.90
70269;DHT22;58514;48.398;-4.274;2022-11-15T04:52:18;13.70;99.90
70269;DHT22;58514;48.398;-4.274;2022-11-15T04:54:44;13.70;99.90
70269;DHT22;58514;48.398;-4.274;2022-11-15T04:57:09;13.60;99.90
70269;DHT22;58514;48.398;-4.274;2022-11-15T04:59:35;13.70;99.90
70269;DHT22;58514;48.398;-4.274;2022-11-15T05:02:01;13.70;99.90
70269;DHT22;58514;48.398;-4.274;2022-11-15T05:04:26;13.70;99.90
70269;DHT22;58514;48.398;-4.274;2022-11-15T05:06:52;13.70;99.90
70269;DHT22;58514;48.398;-4.274;2022-11-15T05:09:18;13.70;99.90
70269;DHT22;58514;48.398;-4.274;2022-11-15T05:11:44;13.70;99.90
70269;DHT22;58514;48.398;-4.274;2022-11-15T05:14:09;13.70;99.90
70269;DHT22;58514;48.398;-4.274;2022-11-15T05:16:35;13.80;99.90
70269;DHT22;58514;48.398;-4.274;2022-11-15T05:19:01;13.80;99.90
70269;DHT22;58514;48.398;-4.274;2022-11-15T05:21:27;13.80;99.90
70269;DHT22;58514;48.398;-4.274;2022-11-15T05:23:53;13.90;99.90
70269;DHT22;58514;48.398;-4.274;2022-11-15T05:26:18;13.90;99.90
70269;DHT22;58514;48.398;-4.274;2022-11-15T05:28:44;13.90;99.90
70269;DHT22;58514;48.398;-4.274;2022-11-15T05:31:10;13.90;99.90
70269;DHT22;58514;48.398;-4.274;2022-11-15T05:33:37;13.90;99.90
70269;DHT22;58514;48.398;-4.274;2022-11-15T05:38:32;13.90;99.90
70269;DHT22;58514;48.398;-4.274;2022-11-15T05:40:59;13.90;99.90
70269;DHT22;58514;48.398;-4.274;2022-11-15T05:43:25;13.90;99.90
70269;DHT22;58514;48.398;-4.274;2022-11-15T05:45:50;13.90;99.90
70269;DHT22;58514;48.398;-4.274;2022-11-15T05:48:16;13.90;99.90
70269;DHT22;58514;48.398;-4.274;2022-11-15T05:50:42;13.90;99.90
70269;DHT22;58514;48.398;-4.274;2022-11-15T05:53:09;13.80;99.90
70269;DHT22;58514;48.398;-4.274;2022-11-15T05:55:37;13.70;99.90
70269;DHT22;58514;48.398;-4.274;2022-11-15T05:58:03;13.60;99.90
70269;DHT22;58514;48.398;-4.274;2022-11-15T06:00:28;13.50;99.90
70269;DHT22;58514;48.398;-4.274;2022-11-15T06:02:54;13.50;99.90
70269;DHT22;58514;48.398;-4.274;2022-11-15T06:05:20;13.40;99.90
70269;DHT22;58514;48.398;-4.274;2022-11-15T06:07:45;13.30;99.90
70269;DHT22;58514;48.398;-4.274;2022-11-15T06:10:11;13.20;99.90
70269;DHT22;58514;48.398;-4.274;2022-11-15T06:12:36;13.10;99.90
70269;DHT22;58514;48.398;-4.274;2022-11-15T06:15:02;13.00;99.90
70269;DHT22;58514;48.398;-4.274;2022-11-15T06:17:28;13.00;99.90
70269;DHT22;58514;48.398;-4.274;2022-11-15T06:19:54;12.90;99.90
70269;DHT22;58514;48.398;-4.274;2022-11-15T06:22:19;12.90;99.90
70269;DHT22;58514;48.398;-4.274;2022-11-15T06:24:45;12.80;99.90
70269;DHT22;58514;48.398;-4.274;2022-11-15T06:27:10;12.80;99.90
70269;DHT22;58514;48.398;-4.274;2022-11-15T06:29:36;12.70;99.90
70269;DHT22;58514;48.398;-4.274;2022-11-15T06:32:02;12.60;99.90
70269;DHT22;58514;48.398;-4.274;2022-11-15T06:34:27;12.50;99.90
70269;DHT22;58514;48.398;-4.274;2022-11-15T06:36:53;12.40;99.90
70269;DHT22;58514;48.398;-4.274;2022-11-15T06:39:18;12.40;99.90
70269;DHT22;58514;48.398;-4.274;2022-11-15T06:41:44;12.40;99.90
70269;DHT22;58514;48.398;-4.274;2022-11-15T06:44:09;12.40;99.90
70269;DHT22;58514;48.398;-4.274;2022-11-15T06:46:35;12.40;99.90
70269;DHT22;58514;48.398;-4.274;2022-11-15T06:49:01;12.40;99.90
70269;DHT22;58514;48.398;-4.274;2022-11-15T06:51:26;12.40;99.90
70269;DHT22;58514;48.398;-4.274;2022-11-15T06:53:52;12.30;99.90
70269;DHT22;58514;48.398;-4.274;2022-11-15T06:56:17;12.30;99.90
70269;DHT22;58514;48.398;-4.274;2022-11-15T06:58:43;12.30;99.90
70269;DHT22;58514;48.398;-4.274;2022-11-15T07:01:09;12.30;99.90
70269;DHT22;58514;48.398;-4.274;2022-11-15T07:03:35;12.30;99.90
70269;DHT22;58514;48.398;-4.274;2022-11-15T07:06:02;12.30;99.90
70269;DHT22;58514;48.398;-4.274;2022-11-15T07:08:28;12.30;99.90
70269;DHT22;58514;48.398;-4.274;2022-11-15T07:10:54;12.30;99.90
70269;DHT22;58514;48.398;-4.274;2022-11-15T07:13:20;12.30;99.90
70269;DHT22;58514;48.398;-4.274;2022-11-15T07:15:49;12.20;99.90
70269;DHT22;58514;48.398;-4.274;2022-11-15T07:18:14;12.30;99.90
70269;DHT22;58514;48.398;-4.274;2022-11-15T07:20:40;12.20;99.90
70269;DHT22;58514;48.398;-4.274;2022-11-15T07:23:05;12.20;99.90
70269;DHT22;58514;48.398;-4.274;2022-11-15T07:25:31;12.20;99.90
70269;DHT22;58514;48.398;-4.274;2022-11-15T07:27:57;12.30;99.90
70269;DHT22;58514;48.398;-4.274;2022-11-15T07:30:23;12.30;99.90
70269;DHT22;58514;48.398;-4.274;2022-11-15T07:32:59;12.30;99.90
70269;DHT22;58514;48.398;-4.274;2022-11-15T07:35:25;12.30;99.90
70269;DHT22;58514;48.398;-4.274;2022-11-15T07:37:55;12.30;99.90
70269;DHT22;58514;48.398;-4.274;2022-11-15T07:40:21;12.30;99.90
70269;DHT22;58514;48.398;-4.274;2022-11-15T07:42:47;12.30;99.90
70269;DHT22;58514;48.398;-4.274;2022-11-15T07:45:19;12.30;99.90
70269;DHT22;58514;48.398;-4.274;2022-11-15T07:47:45;12.30;99.90
70269;DHT22;58514;48.398;-4.274;2022-11-15T07:50:11;12.40;99.90
70269;DHT22;58514;48.398;-4.274;2022-11-15T07:52:36;12.40;99.90
70269;DHT22;58514;48.398;-4.274;2022-11-15T07:55:02;12.30;99.90
70269;DHT22;58514;48.398;-4.274;2022-11-15T07:57:28;12.40;99.90
70269;DHT22;58514;48.398;-4.274;2022-11-15T07:59:54;12.40;99.90
70269;DHT22;58514;48.398;-4.274;2022-11-15T08:02:20;12.40;99.90
70269;DHT22;58514;48.398;-4.274;2022-11-15T08:04:45;12.40;99.90
70269;DHT22;58514;48.398;-4.274;2022-11-15T08:07:11;12.50;99.90
70269;DHT22;58514;48.398;-4.274;2022-11-15T08:09:36;12.50;99.90
70269;DHT22;58514;48.398;-4.274;2022-11-15T08:12:02;12.50;99.90
70269;DHT22;58514;48.398;-4.274;2022-11-15T08:14:27;12.50;99.90
70269;DHT22;58514;48.398;-4.274;2022-11-15T08:16:54;12.50;99.90
70269;DHT22;58514;48.398;-4.274;2022-11-15T08:19:19;12.50;99.90
70269;DHT22;58514;48.398;-4.274;2022-11-15T08:21:45;12.50;99.90
70269;DHT22;58514;48.398;-4.274;2022-11-15T08:24:11;12.50;99.90
70269;DHT22;58514;48.398;-4.274;2022-11-15T08:26:36;12.60;99.90
70269;DHT22;58514;48.398;-4.274;2022-11-15T08:29:02;12.50;99.90
70269;DHT22;58514;48.398;-4.274;2022-11-15T08:31:27;12.50;99.90
70269;DHT22;58514;48.398;-4.274;2022-11-15T08:33:53;12.50;99.90
70269;DHT22;58514;48.398;-4.274;2022-11-15T08:36:19;12.50;99.90
70269;DHT22;58514;48.398;-4.274;2022-11-15T08:38:44;12.50;99.90
70269;DHT22;58514;48.398;-4.274;2022-11-15T08:41:12;12.60;99.90
70269;DHT22;58514;48.398;-4.274;2022-11-15T08:43:38;12.60;99.90
70269;DHT22;58514;48.398;-4.274;2022-11-15T08:46:04;12.60;99.90
70269;DHT22;58514;48.398;-4.274;2022-11-15T08:48:29;12.60;99.90
70269;DHT22;58514;48.398;-4.274;2022-11-15T08:50:55;12.60;99.90
70269;DHT22;58514;48.398;-4.274;2022-11-15T08:53:21;12.50;99.90
70269;DHT22;58514;48.398;-4.274;2022-11-15T08:55:47;12.60;99.90
70269;DHT22;58514;48.398;-4.274;2022-11-15T08:58:12;12.60;99.90
70269;DHT22;58514;48.398;-4.274;2022-11-15T09:00:38;12.70;99.90
70269;DHT22;58514;48.398;-4.274;2022-11-15T09:03:04;12.70;99.90
70269;DHT22;58514;48.398;-4.274;2022-11-15T09:05:30;12.70;99.90
70269;DHT22;58514;48.398;-4.274;2022-11-15T09:07:55;12.70;99.90
70269;DHT22;58514;48.398;-4.274;2022-11-15T09:10:21;12.70;99.90
70269;DHT22;58514;48.398;-4.274;2022-11-15T09:12:47;12.60;99.90
70269;DHT22;58514;48.398;-4.274;2022-11-15T09:15:15;12.60;99.90
70269;DHT22;58514;48.398;-4.274;2022-11-15T09:17:41;12.60;99.90
70269;DHT22;58514;48.398;-4.274;2022-11-15T09:20:07;12.60;99.90
70269;DHT22;58514;48.398;-4.274;2022-11-15T09:22:33;12.70;99.90
70269;DHT22;58514;48.398;-4.274;2022-11-15T09:24:58;12.70;99.90
70269;DHT22;58514;48.398;-4.274;2022-11-15T09:27:27;12.70;99.90
70269;DHT22;58514;48.398;-4.274;2022-11-15T09:29:53;12.80;99.90
70269;DHT22;58514;48.398;-4.274;2022-11-15T09:32:18;12.90;99.90
70269;DHT22;58514;48.398;-4.274;2022-11-15T09:34:44;12.90;99.90
70269;DHT22;58514;48.398;-4.274;2022-11-15T09:37:09;12.90;99.90
70269;DHT22;58514;48.398;-4.274;2022-11-15T09:39:35;12.90;99.90
70269;DHT22;58514;48.398;-4.274;2022-11-15T09:42:07;12.90;99.90
70269;DHT22;58514;48.398;-4.274;2022-11-15T09:44:39;12.90;99.90
70269;DHT22;58514;48.398;-4.274;2022-11-15T09:49:54;12.90;99.90
70269;DHT22;58514;48.398;-4.274;2022-11-15T09:52:20;13.00;99.90
70269;DHT22;58514;48.398;-4.274;2022-11-15T09:54:47;13.00;99.90
70269;DHT22;58514;48.398;-4.274;2022-11-15T09:58:00;13.00;99.90
70269;DHT22;58514;48.398;-4.274;2022-11-15T10:04:59;12.90;99.90
70269;DHT22;58514;48.398;-4.274;2022-11-15T10:07:46;12.90;99.90
70269;DHT22;58514;48.398;-4.274;2022-11-15T10:12:42;12.90;99.90
70269;DHT22;58514;48.398;-4.274;2022-11-15T10:15:11;12.80;99.90
70269;DHT22;58514;48.398;-4.274;2022-11-15T10:20:10;12.90;99.90
70269;DHT22;58514;48.398;-4.274;2022-11-15T10:22:43;12.90;99.90
70269;DHT22;58514;48.398;-4.274;2022-11-15T10:25:12;13.00;99.90
70269;DHT22;58514;48.398;-4.274;2022-11-15T10:27:40;13.00;99.90
70269;DHT22;58514;48.398;-4.274;2022-11-15T10:30:11;13.10;99.90
70269;DHT22;58514;48.398;-4.274;2022-11-15T10:32:37;13.10;99.90
70269;DHT22;58514;48.398;-4.274;2022-11-15T10:35:15;13.00;99.90
70269;DHT22;58514;48.398;-4.274;2022-11-15T10:37:41;13.00;99.90
70269;DHT22;58514;48.398;-4.274;2022-11-15T10:40:17;13.10;99.90
70269;DHT22;58514;48.398;-4.274;2022-11-15T10:42:43;13.10;99.90
70269;DHT22;58514;48.398;-4.274;2022-11-15T10:45:28;13.10;99.90
70269;DHT22;58514;48.398;-4.274;2022-11-15T10:47:57;13.20;99.90
70269;DHT22;58514;48.398;-4.274;2022-11-15T10:50:40;13.20;99.90
70269;DHT22;58514;48.398;-4.274;2022-11-15T10:53:15;13.20;99.90
70269;DHT22;58514;48.398;-4.274;2022-11-15T10:55:42;13.20;99.90
70269;DHT22;58514;48.398;-4.274;2022-11-15T11:00:55;13.20;99.90
70269;DHT22;58514;48.398;-4.274;2022-11-15T11:03:34;13.30;99.90
70269;DHT22;58514;48.398;-4.274;2022-11-15T11:06:06;13.40;99.90
70269;DHT22;58514;48.398;-4.274;2022-11-15T11:08:32;13.40;99.90
70269;DHT22;58514;48.398;-4.274;2022-11-15T11:10:58;13.50;99.90
70269;DHT22;58514;48.398;-4.274;2022-11-15T11:13:25;13.50;99.90
70269;DHT22;58514;48.398;-4.274;2022-11-15T11:15:57;13.40;99.90
70269;DHT22;58514;48.398;-4.274;2022-11-15T11:18:30;13.30;99.90
70269;DHT22;58514;48.398;-4.274;2022-11-15T11:20:59;13.30;99.90
70269;DHT22;58514;48.398;-4.274;2022-11-15T11:34:29;13.20;99.90
70269;DHT22;58514;48.398;-4.274;2022-11-15T11:37:03;13.10;99.90
70269;DHT22;58514;48.398;-4.274;2022-11-15T11:42:04;12.90;99.90
70269;DHT22;58514;48.398;-4.274;2022-11-15T11:47:15;12.60;99.90
70269;DHT22;58514;48.398;-4.274;2022-11-15T11:49:56;12.50;99.90
70269;DHT22;58514;48.398;-4.274;2022-11-15T11:54:58;12.40;99.90
70269;DHT22;58514;48.398;-4.274;2022-11-15T11:57:37;12.30;99.90
70269;DHT22;58514;48.398;-4.274;2022-11-15T12:00:12;12.20;99.90
70269;DHT22;58514;48.398;-4.274;2022-11-15T12:02:41;12.20;99.90
70269;DHT22;58514;48.398;-4.274;2022-11-15T12:05:13;12.10;99.90
70269;DHT22;58514;48.398;-4.274;2022-11-15T12:07:41;12.00;99.90
70269;DHT22;58514;48.398;-4.274;2022-11-15T12:10:14;12.00;99.90
70269;DHT22;58514;48.398;-4.274;2022-11-15T12:17:35;11.80;99.90
70269;DHT22;58514;48.398;-4.274;2022-11-15T12:20:20;11.80;99.90
70269;DHT22;58514;48.398;-4.274;2022-11-15T12:25:22;11.80;99.90
70269;DHT22;58514;48.398;-4.274;2022-11-15T12:27:54;11.80;99.90
70269;DHT22;58514;48.398;-4.274;2022-11-15T12:30:21;11.80;99.90
70269;DHT22;58514;48.398;-4.274;2022-11-15T12:35:26;11.80;99.90
70269;DHT22;58514;48.398;-4.274;2022-11-15T12:37:55;11.80;99.90
70269;DHT22;58514;48.398;-4.274;2022-11-15T12:40:25;11.70;99.90
70269;DHT22;58514;48.398;-4.274;2022-11-15T12:45:24;11.70;99.90
70269;DHT22;58514;48.398;-4.274;2022-11-15T12:47:50;11.70;99.90
70269;DHT22;58514;48.398;-4.274;2022-11-15T12:50:15;11.70;99.90
70269;DHT22;58514;48.398;-4.274;2022-11-15T12:53:25;11.70;99.90
70269;DHT22;58514;48.398;-4.274;2022-11-15T12:55:39;11.60;99.90
70269;DHT22;58514;48.398;-4.274;2022-11-15T12:58:26;11.50;99.90
70269;DHT22;58514;48.398;-4.274;2022-11-15T13:00:52;11.40;99.90
70269;DHT22;58514;48.398;-4.274;2022-11-15T13:03:19;11.30;99.90
70269;DHT22;58514;48.398;-4.274;2022-11-15T13:08:11;11.20;99.90
70269;DHT22;58514;48.398;-4.274;2022-11-15T13:10:56;11.20;99.90
70269;DHT22;58514;48.398;-4.274;2022-11-15T13:13:55;11.10;99.90
70269;DHT22;58514;48.398;-4.274;2022-11-15T13:16:17;11.10;99.90
70269;DHT22;58514;48.398;-4.274;2022-11-15T13:18:52;11.10;99.90
70269;DHT22;58514;48.398;-4.274;2022-11-15T13:21:22;11.00;99.90
70269;DHT22;58514;48.398;-4.274;2022-11-15T13:24:11;11.00;99.90
70269;DHT22;58514;48.398;-4.274;2022-11-15T13:26:38;11.00;99.90
70269;DHT22;58514;48.398;-4.274;2022-11-15T13:29:04;11.00;99.90
70269;DHT22;58514;48.398;-4.274;2022-11-15T13:31:34;10.90;99.90
70269;DHT22;58514;48.398;-4.274;2022-11-15T13:34:02;11.00;99.90
70269;DHT22;58514;48.398;-4.274;2022-11-15T13:36:29;11.00;99.90
70269;DHT22;58514;48.398;-4.274;2022-11-15T13:38:59;11.10;99.90
70269;DHT22;58514;48.398;-4.274;2022-11-15T13:41:27;11.10;99.90
70269;DHT22;58514;48.398;-4.274;2022-11-15T13:43:53;11.20;99.90
70269;DHT22;58514;48.398;-4.274;2022-11-15T13:46:26;11.30;99.90
70269;DHT22;58514;48.398;-4.274;2022-11-15T13:48:54;11.30;99.90
70269;DHT22;58514;48.398;-4.274;2022-11-15T13:51:25;11.40;99.90
70269;DHT22;58514;48.398;-4.274;2022-11-15T13:54:01;11.40;99.90
70269;DHT22;58514;48.398;-4.274;2022-11-15T13:56:27;11.30;99.90
70269;DHT22;58514;48.398;-4.274;2022-11-15T13:58:53;11.20;99.90
70269;DHT22;58514;48.398;-4.274;2022-11-15T14:01:20;11.10;99.90
70269;DHT22;58514;48.398;-4.274;2022-11-15T14:03:50;11.10;99.90
70269;DHT22;58514;48.398;-4.274;2022-11-15T14:06:18;11.00;99.90
70269;DHT22;58514;48.398;-4.274;2022-11-15T14:11:26;10.90;99.90
70269;DHT22;58514;48.398;-4.274;2022-11-15T14:16:36;10.90;99.90
70269;DHT22;58514;48.398;-4.274;2022-11-15T14:19:03;10.90;99.90
70269;DHT22;58514;48.398;-4.274;2022-11-15T14:21:29;10.90;99.90
70269;DHT22;58514;48.398;-4.274;2022-11-15T14:24:14;10.80;99.90
70269;DHT22;58514;48.398;-4.274;2022-11-15T14:26:40;10.80;99.90
70269;DHT22;58514;48.398;-4.274;2022-11-15T14:29:21;10.90;99.90
70269;DHT22;58514;48.398;-4.274;2022-11-15T14:31:47;10.90;99.90
70269;DHT22;58514;48.398;-4.274;2022-11-15T14:34:13;10.90;99.90
70269;DHT22;58514;48.398;-4.274;2022-11-15T14:36:38;10.90;99.90
70269;DHT22;58514;48.398;-4.274;2022-11-15T14:39:04;11.00;99.90
70269;DHT22;58514;48.398;-4.274;2022-11-15T14:41:33;11.00;99.90
70269;DHT22;58514;48.398;-4.274;2022-11-15T14:43:59;11.00;99.90
70269;DHT22;58514;48.398;-4.274;2022-11-15T14:46:25;11.10;99.90
70269;DHT22;58514;48.398;-4.274;2022-11-15T14:48:50;11.10;99.90
70269;DHT22;58514;48.398;-4.274;2022-11-15T14:51:16;11.00;99.90
70269;DHT22;58514;48.398;-4.274;2022-11-15T14:53:43;11.00;99.90
70269;DHT22;58514;48.398;-4.274;2022-11-15T14:56:09;11.00;99.90
70269;DHT22;58514;48.398;-4.274;2022-11-15T14:58:35;10.90;99.90
70269;DHT22;58514;48.398;-4.274;2022-11-15T15:01:01;10.90;99.90
70269;DHT22;58514;48.398;-4.274;2022-11-15T15:03:27;10.90;99.90
70269;DHT22;58514;48.398;-4.274;2022-11-15T15:05:53;10.90;99.90
70269;DHT22;58514;48.398;-4.274;2022-11-15T15:08:19;10.90;99.90
70269;DHT22;58514;48.398;-4.274;2022-11-15T15:10:45;10.90;99.90
70269;DHT22;58514;48.398;-4.274;2022-11-15T15:13:18;10.90;99.90
70269;DHT22;58514;48.398;-4.274;2022-11-15T15:15:43;10.90;99.90
70269;DHT22;58514;48.398;-4.274;2022-11-15T15:18:09;11.00;99.90
70269;DHT22;58514;48.398;-4.274;2022-11-15T15:20:37;10.90;99.90
70269;DHT22;58514;48.398;-4.274;2022-11-15T15:23:03;11.00;99.90
70269;DHT22;58514;48.398;-4.274;2022-11-15T15:25:32;10.90;99.90
70269;DHT22;58514;48.398;-4.274;2022-11-15T15:27:58;10.90;99.90
70269;DHT22;58514;48.398;-4.274;2022-11-15T15:30:24;10.90;99.90
70269;DHT22;58514;48.398;-4.274;2022-11-15T15:32:50;10.90;99.90
70269;DHT22;58514;48.398;-4.274;2022-11-15T15:35:16;10.90;99.90
70269;DHT22;58514;48.398;-4.274;2022-11-15T15:37:42;10.90;99.90
70269;DHT22;58514;48.398;-4.274;2022-11-15T15:40:13;10.90;99.90
70269;DHT22;58514;48.398;-4.274;2022-11-15T15:42:39;10.90;99.90
70269;DHT22;58514;48.398;-4.274;2022-11-15T15:45:05;10.90;99.90
70269;DHT22;58514;48.398;-4.274;2022-11-15T15:47:30;10.90;99.90
70269;DHT22;58514;48.398;-4.274;2022-11-15T15:49:56;10.90;99.90
70269;DHT22;58514;48.398;-4.274;2022-11-15T15:52:21;10.90;99.90
70269;DHT22;58514;48.398;-4.274;2022-11-15T15:54:47;10.90;99.90
70269;DHT22;58514;48.398;-4.274;2022-11-15T15:57:13;10.90;99.90
70269;DHT22;58514;48.398;-4.274;2022-11-15T15:59:39;10.90;99.90
70269;DHT22;58514;48.398;-4.274;2022-11-15T16:02:05;10.90;99.90
70269;DHT22;58514;48.398;-4.274;2022-11-15T16:04:31;10.90;99.90
70269;DHT22;58514;48.398;-4.274;2022-11-15T16:07:00;10.90;99.90
70269;DHT22;58514;48.398;-4.274;2022-11-15T16:09:26;10.90;99.90
70269;DHT22;58514;48.398;-4.274;2022-11-15T16:12:15;10.90;99.90
70269;DHT22;58514;48.398;-4.274;2022-11-15T16:14:42;10.90;99.90
70269;DHT22;58514;48.398;-4.274;2022-11-15T16:17:09;10.80;99.90
70269;DHT22;58514;48.398;-4.274;2022-11-15T16:19:37;10.80;99.90
70269;DHT22;58514;48.398;-4.274;2022-11-15T16:22:02;10.80;99.90
70269;DHT22;58514;48.398;-4.274;2022-11-15T16:24:28;10.80;99.90
70269;DHT22;58514;48.398;-4.274;2022-11-15T16:26:53;10.70;99.90
70269;DHT22;58514;48.398;-4.274;2022-11-15T16:29:19;10.70;99.90
70269;DHT22;58514;48.398;-4.274;2022-11-15T16:31:44;10.70;99.90
70269;DHT22;58514;48.398;-4.274;2022-11-15T16:34:10;10.60;99.90
70269;DHT22;58514;48.398;-4.274;2022-11-15T16:36:35;10.70;99.90
70269;DHT22;58514;48.398;-4.274;2022-11-15T16:39:01;10.60;99.90
70269;DHT22;58514;48.398;-4.274;2022-11-15T16:41:29;10.60;99.90
70269;DHT22;58514;48.398;-4.274;2022-11-15T16:43:54;10.60;99.90
70269;DHT22;58514;48.398;-4.274;2022-11-15T16:46:23;10.60;99.90
70269;DHT22;58514;48.398;-4.274;2022-11-15T16:48:50;10.70;99.90
70269;DHT22;58514;48.398;-4.274;2022-11-15T16:51:16;10.60;99.90